This is the latest recevied weather packets stored in our database for station/object SP3WRO-13. If no packets are shown the sender has not sent any weather packets the latest 10 day(s).
| Time | Temp. | Humidity | Pressure | Rain* | Wind** | Luminosity | Snow |
|---|---|---|---|---|---|---|---|
| 1788260460 | 18.33° C | 83% | 1012.7 hPa | 2.29 mm | - | 235 W/m² | - |
| 1788259560 | 18.33° C | 84% | 1012.7 hPa | 2.29 mm | - | 269 W/m² | - |
| 1788258660 | 18.33° C | 84% | 1012.5 hPa | 2.29 mm | - | 323 W/m² | - |
| 1788257760 | 17.78° C | 88% | 1012.4 hPa | 2.29 mm | - | 221 W/m² | - |
| 1788256859 | 17.22° C | 90% | 1012.4 hPa | 2.29 mm | - | 226 W/m² | - |
| 1788255959 | 16.11° C | 92% | 1012.2 hPa | 2.29 mm | - | 197 W/m² | - |
| 1788255059 | 16.11° C | 93% | 1012.2 hPa | 2.03 mm | - | 149 W/m² | - |
| 1788254159 | 17.22° C | 89% | 1012.1 hPa | 0.76 mm | - | 69 W/m² | - |
| 1788253259 | 16.11° C | 90% | 1012 hPa | 0.76 mm | - | 434 W/m² | - |
| 1788252359 | 17.22° C | 84% | 1011.8 hPa | 0.51 mm | - | 50 W/m² | - |
| 1788251459 | 17.22° C | 83% | 1011.8 hPa | 0.51 mm | - | 215 W/m² | - |
| 1788250558 | 16.67° C | 87% | 1011.7 hPa | 0.51 mm | - | 187 W/m² | - |
| 1788249658 | 16.67° C | 86% | 1011.7 hPa | 0.51 mm | - | 179 W/m² | - |
| 1788248758 | 16.11° C | 88% | 1011.5 hPa | 0.51 mm | - | 203 W/m² | - |
| 1788247858 | 15.56° C | 89% | 1011.2 hPa | 0.51 mm | - | 471 W/m² | - |
| 1788246958 | 15.56° C | 92% | 1011.1 hPa | 0.51 mm | - | 120 W/m² | - |
| 1788246058 | 15° C | 93% | 1010.9 hPa | 0.51 mm | - | 122 W/m² | - |
| 1788245158 | 15° C | 94% | 1010.8 hPa | 0.51 mm | - | 75 W/m² | - |
| 1788244258 | 14.44° C | 95% | 1010.6 hPa | 0.51 mm | - | 53 W/m² | - |
| 1788243358 | 14.44° C | 93% | 1010.4 hPa | 0.25 mm | - | 36 W/m² | - |
| 1788242458 | 14.44° C | 91% | 1010.2 hPa | - | - | 39 W/m² | - |
| 1788241558 | 14.44° C | 89% | 1010.1 hPa | - | - | 26 W/m² | - |
| 1788240658 | 14.44° C | 90% | 1010.1 hPa | - | - | 11 W/m² | - |
| 1788239758 | 14.44° C | 89% | 1010 hPa | - | - | 13 W/m² | - |
| 1788238857 | 14.44° C | 90% | 1009.9 hPa | - | - | 12 W/m² | - |
* Rain latest 24 hours (hover to see other rain measurements)
** Current wind speed in m/s (hover to see current wind gust speed)